Time;durP1;ratioP1;P1;durP2;ratioP2;P2;SDS_P1;SDS_P2;PMS_P1;PMS_P2;Temp;Humidity;BMP_temperature;BMP_pressure;BME280_temperature;BME280_humidity;BME280_pressure;Samples;Min_cycle;Max_cycle;Signal;HPM_P1;HPM_P2
2022/12/21 09:49:36;;;;;;;4.43;2.83;;;7.70;99.90;;;;;;5141237;27;20270;-82
2022/12/21 10:07:21;;;;;;;4.40;2.80;;;7.90;99.90;;;;;;5141833;27;20301;-83
2022/12/21 10:11:26;;;;;;;6.63;3.03;;;8.00;99.90;;;;;;5155187;27;20326;-83
2022/12/21 10:14:19;;;;;;;5.70;3.13;;;8.10;99.90;;;;;;5139806;28;20174;-83
2022/12/21 10:16:54;;;;;;;8.43;4.03;;;8.30;99.90;;;;;;5138120;28;20230;-83
2022/12/21 10:19:36;;;;;;;7.10;3.23;;;8.40;99.90;;;;;;5139478;27;20281;-83
2022/12/21 10:22:12;;;;;;;6.13;3.23;;;8.40;99.90;;;;;;5138277;28;20175;-85
2022/12/21 10:24:50;;;;;;;6.80;2.83;;;8.30;99.90;;;;;;5137746;28;20180;-83
2022/12/21 10:29:14;;;;;;;5.73;3.00;;;8.30;99.90;;;;;;5141682;27;20273;-86
2022/12/21 10:33:42;;;;;;;4.70;2.80;;;8.30;99.90;;;;;;5141896;27;20276;-84
2022/12/21 10:38:14;;;;;;;3.60;2.80;;;8.30;99.90;;;;;;5085432;28;20616;-83
2022/12/21 10:42:45;;;;;;;5.13;2.70;;;8.50;99.90;;;;;;5139626;27;20272;-83
2022/12/21 10:45:16;;;;;;;6.83;2.77;;;8.60;99.90;;;;;;5139477;28;20186;-83
2022/12/21 10:47:44;;;;;;;4.50;3.53;;;8.60;99.90;;;;;;5130022;28;20197;-83
2022/12/21 10:50:23;;;;;;;10.43;3.27;;;8.70;99.90;;;;;;5138618;28;20225;-83
2022/12/21 10:52:51;;;;;;;7.83;3.60;;;8.80;99.90;;;;;;5138693;28;20182;-84
2022/12/21 10:55:17;;;;;;;13.37;3.67;;;9.00;99.90;;;;;;5139713;27;20628;-84
2022/12/21 10:58:03;;;;;;;4.40;2.40;;;9.20;99.90;;;;;;5139337;28;20205;-86
2022/12/21 11:00:40;;;;;;;2.37;2.00;;;9.40;99.90;;;;;;5139566;27;20187;-84
2022/12/21 11:03:23;;;;;;;1.73;1.63;;;9.70;99.90;;;;;;5139144;28;20176;-84
2022/12/21 11:05:49;;;;;;;1.37;1.23;;;10.00;99.90;;;;;;5138828;27;20246;-84
2022/12/21 11:08:20;;;;;;;2.00;1.20;;;10.30;99.90;;;;;;5136986;28;20223;-83
2022/12/21 11:10:48;;;;;;;1.37;1.00;;;10.60;99.90;;;;;;5139175;27;20210;-82
2022/12/21 11:13:15;;;;;;;2.73;1.17;;;11.30;99.90;;;;;;5139405;27;20258;-83
2022/12/21 11:16:05;;;;;;;3.93;1.67;;;11.40;99.90;;;;;;5139529;27;20171;-83
2022/12/21 11:18:46;;;;;;;2.37;1.23;;;11.50;99.90;;;;;;5140584;28;20564;-85
2022/12/21 11:21:37;;;;;;;3.70;1.40;;;11.60;99.90;;;;;;5142579;28;20203;-84
2022/12/21 11:24:20;;;;;;;1.67;1.00;;;11.70;99.90;;;;;;5146607;28;20190;-85
2022/12/21 11:26:50;;;;;;;2.60;1.30;;;12.10;99.90;;;;;;5143955;28;20258;-83
2022/12/21 11:29:23;;;;;;;2.70;1.43;;;12.10;99.90;;;;;;5139953;27;20171;-84
2022/12/21 11:31:50;;;;;;;3.83;1.93;;;12.00;99.90;;;;;;5136865;28;20175;-84
2022/12/21 11:34:35;;;;;;;8.33;6.67;;;12.20;99.90;;;;;;5138257;28;20239;-85
2022/12/21 11:37:20;;;;;;;2.57;1.83;;;13.00;99.90;;;;;;5137627;28;20222;-85
2022/12/21 11:39:46;;;;;;;2.30;1.73;;;13.50;99.90;;;;;;5136618;28;20230;-84
2022/12/21 11:42:16;;;;;;;1.30;1.20;;;13.20;99.90;;;;;;5135342;28;20216;-81
2022/12/21 11:44:42;;;;;;;1.53;0.90;;;12.50;99.90;;;;;;5135290;27;20171;-83
2022/12/21 11:47:27;;;;;;;0.90;0.80;;;12.10;99.90;;;;;;5136714;28;20252;-84
2022/12/21 11:50:17;;;;;;;0.97;0.77;;;11.80;99.90;;;;;;5137140;27;20187;-85
2022/12/21 11:52:56;;;;;;;2.30;1.00;;;11.60;99.90;;;;;;5131811;28;20165;-82
2022/12/21 11:55:46;;;;;;;4.13;1.83;;;11.40;99.90;;;;;;5123215;28;20171;-86
2022/12/21 11:58:36;;;;;;;7.00;3.97;;;11.30;99.90;;;;;;5125174;28;20192;-87
2022/12/21 12:01:16;;;;;;;3.70;2.40;;;11.30;99.90;;;;;;5123374;28;20213;-84
2022/12/21 12:04:02;;;;;;;4.10;3.43;;;11.20;99.90;;;;;;5123591;28;20586;-85
2022/12/21 12:06:47;;;;;;;2.00;1.57;;;11.10;99.90;;;;;;5111556;28;20205;-84
2022/12/21 12:09:22;;;;;;;1.63;1.07;;;10.90;99.90;;;;;;5125442;28;20344;-84
2022/12/21 12:11:53;;;;;;;1.70;1.23;;;10.80;99.90;;;;;;5123354;28;20181;-81
2022/12/21 12:14:56;;;;;;;2.13;1.70;;;10.80;99.90;;;;;;5117024;28;20216;-84
2022/12/21 12:17:34;;;;;;;2.13;1.70;;;10.80;99.90;;;;;;5120188;28;20761;-83
2022/12/21 12:20:08;;;;;;;2.80;2.40;;;10.80;99.90;;;;;;5123984;28;20162;-84
2022/12/21 12:22:37;;;;;;;3.77;1.93;;;10.80;99.90;;;;;;5123320;28;20285;-84
2022/12/21 12:25:32;;;;;;;2.73;1.47;;;10.80;99.90;;;;;;5123606;28;20175;-85
2022/12/21 12:28:13;;;;;;;3.00;2.20;;;10.90;99.90;;;;;;5123563;28;20220;-86
2022/12/21 12:30:52;;;;;;;2.37;1.87;;;10.90;99.90;;;;;;5124299;28;20190;-84
2022/12/21 12:33:20;;;;;;;2.70;1.43;;;10.90;99.90;;;;;;5123352;28;20183;-84
2022/12/21 12:36:14;;;;;;;2.00;1.00;;;10.90;99.90;;;;;;5124077;28;20179;-84
2022/12/21 12:39:10;;;;;;;0.73;0.67;;;10.90;99.90;;;;;;5123868;28;20683;-84
2022/12/21 12:41:58;;;;;;;2.00;1.30;;;10.90;99.90;;;;;;5123851;28;20211;-86
2022/12/21 12:44:52;;;;;;;1.77;0.80;;;10.80;99.90;;;;;;5124523;28;20610;-83
2022/12/21 12:47:45;;;;;;;2.67;0.80;;;10.60;99.90;;;;;;5124833;28;20222;-84
2022/12/21 12:50:14;;;;;;;1.63;1.10;;;10.50;99.90;;;;;;5124076;28;20175;-83
2022/12/21 12:52:46;;;;;;;3.33;1.90;;;10.40;99.90;;;;;;5123697;28;20180;-83
2022/12/21 12:55:12;;;;;;;2.60;1.87;;;10.30;99.90;;;;;;5124559;28;20182;-83
2022/12/21 12:57:46;;;;;;;3.40;2.10;;;10.20;99.90;;;;;;5125711;28;20195;-86
2022/12/21 13:00:16;;;;;;;1.90;1.30;;;10.20;99.90;;;;;;5124498;28;20175;-85
2022/12/21 13:03:20;;;;;;;1.83;1.20;;;10.10;99.90;;;;;;5125037;28;20164;-86
2022/12/21 13:05:52;;;;;;;2.20;1.40;;;10.10;99.90;;;;;;5123133;28;20172;-85
2022/12/21 13:08:39;;;;;;;3.07;1.50;;;10.00;99.90;;;;;;5125104;28;20228;-84
2022/12/21 13:11:29;;;;;;;2.43;1.10;;;10.10;99.90;;;;;;5126139;28;20270;-83
2022/12/21 13:14:12;;;;;;;1.53;1.13;;;10.10;99.90;;;;;;5125147;28;20175;-84
2022/12/21 13:16:50;;;;;;;3.40;1.67;;;10.20;99.90;;;;;;5123168;28;20201;-84
2022/12/21 13:19:18;;;;;;;1.90;1.17;;;10.20;99.90;;;;;;5122056;28;20258;-85
2022/12/21 13:21:45;;;;;;;1.57;1.27;;;10.10;99.90;;;;;;5123745;28;20211;-83
2022/12/21 13:24:14;;;;;;;1.87;1.43;;;10.00;99.90;;;;;;5122272;28;20175;-83
2022/12/21 13:26:43;;;;;;;4.90;3.03;;;10.00;99.90;;;;;;5123559;28;20199;-83
2022/12/21 13:29:24;;;;;;;3.40;1.73;;;9.90;99.90;;;;;;5123406;28;20262;-84
2022/12/21 13:32:07;;;;;;;5.20;2.07;;;9.90;99.90;;;;;;5124588;28;20163;-84
2022/12/21 13:34:54;;;;;;;3.17;1.83;;;9.90;99.90;;;;;;5122163;28;20168;-84
2022/12/21 13:37:21;;;;;;;2.97;1.57;;;9.90;99.90;;;;;;5123638;28;20199;-84
2022/12/21 13:40:04;;;;;;;1.60;1.20;;;9.80;99.90;;;;;;5123909;28;20182;-83
2022/12/21 13:42:49;;;;;;;4.63;2.43;;;9.90;99.90;;;;;;5125951;28;20545;-83
2022/12/21 13:45:47;;;;;;;2.87;1.30;;;9.80;99.90;;;;;;5124675;28;20171;-82
2022/12/21 13:48:17;;;;;;;2.37;1.70;;;9.80;99.90;;;;;;5089132;28;20226;-84
2022/12/21 13:50:55;;;;;;;2.27;1.20;;;9.70;99.90;;;;;;5122634;28;20171;-84
2022/12/21 13:53:31;;;;;;;3.10;1.90;;;9.60;99.90;;;;;;5132952;28;20171;-84
2022/12/21 13:56:11;;;;;;;6.13;2.20;;;9.60;99.90;;;;;;5135289;28;20196;-84
2022/12/21 13:59:00;;;;;;;2.37;1.40;;;9.60;99.90;;;;;;5136860;28;20193;-85
2022/12/21 14:01:53;;;;;;;1.77;1.57;;;9.50;99.90;;;;;;5137245;28;20195;-83
2022/12/21 14:04:44;;;;;;;3.10;1.33;;;9.50;99.90;;;;;;5137523;28;20197;-83
2022/12/21 14:07:16;;;;;;;3.50;2.17;;;9.40;99.90;;;;;;5137963;28;20194;-83
2022/12/21 14:10:00;;;;;;;3.20;1.40;;;9.40;99.90;;;;;;5138691;28;20173;-83
2022/12/21 14:12:47;;;;;;;3.77;2.27;;;9.40;99.90;;;;;;5137987;28;20226;-84
2022/12/21 14:15:19;;;;;;;2.47;1.77;;;9.40;99.90;;;;;;5137739;28;20155;-83
2022/12/21 14:17:48;;;;;;;1.03;0.90;;;9.40;99.90;;;;;;5137880;28;20219;-83
2022/12/21 14:20:26;;;;;;;2.70;1.40;;;9.30;99.90;;;;;;5137532;28;20185;-83
